Time;durP1;ratioP1;P1;durP2;ratioP2;P2;SDS_P1;SDS_P2;PMS_P1;PMS_P2;Temp;Humidity;BMP_temperature;BMP_pressure;BME280_temperature;BME280_humidity;BME280_pressure;Samples;Min_cycle;Max_cycle;Signal;HPM_P1;HPM_P2
2023/09/14 00:01:23;;;;;;;;;;;;;;;;;;5095504;28;19913;-56
2023/09/14 00:03:48;;;;;;;;;;;;;;;;;;5095734;28;19940;-57
2023/09/14 00:06:14;;;;;;;;;;;;;;;;;;5095672;28;19912;-58
2023/09/14 00:08:40;;;;;;;;;;;;;;;;;;5095719;28;19938;-59
2023/09/14 00:11:06;;;;;;;;;;;;;;;;;;5078236;28;19924;-58
2023/09/14 00:13:31;;;;;;;;;;;;;;;;;;5075415;28;19980;-57
2023/09/14 00:15:57;;;;;;;;;;;;;;;;;;5075462;28;19912;-54
2023/09/14 00:18:22;;;;;;;;;;;;;;;;;;5075269;28;19928;-58
2023/09/14 00:20:48;;;;;;;;;;;;;;;;;;5089481;28;19935;-59
2023/09/14 00:23:13;;;;;;;;;;;;;;;;;;5095238;28;19936;-59
2023/09/14 00:25:39;;;;;;;;;;;;;;;;;;5095594;28;19973;-56
2023/09/14 00:28:04;;;;;;;;;;;;;;;;;;5095526;28;19912;-58
2023/09/14 00:30:30;;;;;;;;;;;;;;;;;;5084684;28;19913;-59
2023/09/14 00:32:55;;;;;;;;;;;;;;;;;;5075191;28;19939;-59
2023/09/14 00:35:21;;;;;;;;;;;;;;;;;;5057729;28;19924;-58
2023/09/14 00:37:46;;;;;;;;;;;;;;;;;;5057378;28;19953;-58
2023/09/14 00:40:12;;;;;;;;;;;;;;;;;;5082448;28;19912;-59
2023/09/14 00:42:38;;;;;;;;;;;;;;;;;;5077712;28;19988;-57
2023/09/14 00:45:04;;;;;;;;;;;;;;;;;;5095313;28;19920;-58
2023/09/14 00:47:29;;;;;;;;;;;;;;;;;;5077842;28;19939;-53
2023/09/14 00:49:55;;;;;;;;;;;;;;;;;;5073566;28;19913;-56
2023/09/14 00:52:20;;;;;;;;;;;;;;;;;;5074964;28;20279;-56
2023/09/14 00:54:46;;;;;;;;;;;;;;;;;;5075115;28;19988;-55
2023/09/14 00:57:11;;;;;;;;;;;;;;;;;;5075009;28;19913;-58
2023/09/14 00:59:37;;;;;;;;;;;;;;;;;;5058639;28;19912;-55
2023/09/14 01:02:03;;;;;;;;;;;;;;;;;;5072152;28;19917;-58
2023/09/14 01:04:29;;;;;;;;;;;;;;;;;;5075098;28;20305;-55
2023/09/14 01:06:55;;;;;;;;;;;;;;;;;;5057318;28;19972;-55
2023/09/14 01:09:20;;;;;;;;;;;;;;;;;;5074917;28;19916;-58
2023/09/14 01:11:46;;;;;;;;;;;;;;;;;;5074714;28;19912;-59
2023/09/14 01:14:11;;;;;;;;;;;;;;;;;;5074863;28;19913;-56
2023/09/14 01:16:37;;;;;;;;;;;;;;;;;;5057375;28;19962;-56
2023/09/14 01:19:02;;;;;;;;;;;;;;;;;;5057193;28;19924;-56
2023/09/14 01:21:27;;;;;;;;;;;;;;;;;;5057298;28;19913;-56
2023/09/14 01:23:52;;;;;;;;;;;;;;;;;;5057416;28;19924;-56
2023/09/14 01:26:18;;;;;;;;;;;;;;;;;;5074412;28;19913;-54
2023/09/14 01:28:43;;;;;;;;;;;;;;;;;;5074884;28;20002;-56
2023/09/14 01:31:09;;;;;;;;;;;;;;;;;;5101713;28;19920;-56
2023/09/14 01:33:35;;;;;;;;;;;;;;;;;;5077134;28;19979;-56
2023/09/14 01:36:01;;;;;;;;;;;;;;;;;;5077333;28;19912;-57
2023/09/14 01:38:26;;;;;;;;;;;;;;;;;;5077232;28;19938;-58
2023/09/14 01:40:52;;;;;;;;;;;;;;;;;;5069466;28;19913;-58
2023/09/14 01:43:17;;;;;;;;;;;;;;;;;;5057104;28;19920;-58
2023/09/14 01:45:43;;;;;;;;;;;;;;;;;;5057305;28;19912;-58
2023/09/14 01:48:09;;;;;;;;;;;;;;;;;;5056959;28;19926;-56
2023/09/14 01:50:35;;;;;;;;;;;;;;;;;;5080917;28;19913;-59
2023/09/14 01:53:00;;;;;;;;;;;;;;;;;;5080462;28;19916;-57
2023/09/14 01:55:26;;;;;;;;;;;;;;;;;;5080716;28;19912;-59
2023/09/14 01:57:51;;;;;;;;;;;;;;;;;;5080669;28;19912;-55
2023/09/14 02:00:16;;;;;;;;;;;;;;;;;;5079336;28;19912;-58
2023/09/14 02:02:43;;;;;;;;;;;;;;;;;;5060503;28;19923;-58
2023/09/14 02:05:09;;;;;;;;;;;;;;;;;;5060330;28;19913;-59
2023/09/14 02:07:35;;;;;;;;;;;;;;;;;;5077675;28;19959;-57
2023/09/14 02:10:00;;;;;;;;;;;;;;;;;;5077875;28;19976;-55
2023/09/14 02:12:25;;;;;;;;;;;;;;;;;;5079915;28;19931;-59
2023/09/14 02:14:52;;;;;;;;;;;;;;;;;;5080306;28;19919;-56
2023/09/14 02:17:17;;;;;;;;;;;;;;;;;;5097704;28;19916;-55
2023/09/14 02:19:43;;;;;;;;;;;;;;;;;;5080296;28;19913;-56
2023/09/14 02:22:08;;;;;;;;;;;;;;;;;;5065480;28;19913;-56
2023/09/14 02:24:34;;;;;;;;;;;;;;;;;;5060151;28;19944;-57
2023/09/14 02:27:00;;;;;;;;;;;;;;;;;;5059734;28;19923;-59
2023/09/14 02:29:26;;;;;;;;;;;;;;;;;;5077350;28;19941;-56
2023/09/14 02:31:51;;;;;;;;;;;;;;;;;;5088842;28;19916;-56
2023/09/14 02:34:17;;;;;;;;;;;;;;;;;;5063751;28;19913;-58
2023/09/14 02:36:42;;;;;;;;;;;;;;;;;;5059983;28;19951;-60
2023/09/14 02:39:08;;;;;;;;;;;;;;;;;;5059680;28;19924;-55
2023/09/14 02:41:33;;;;;;;;;;;;;;;;;;5067727;28;19913;-58
2023/09/14 02:43:58;;;;;;;;;;;;;;;;;;5097078;28;19939;-56
2023/09/14 02:46:23;;;;;;;;;;;;;;;;;;5070985;28;19912;-59
2023/09/14 02:48:49;;;;;;;;;;;;;;;;;;5076710;28;19972;-57
2023/09/14 02:51:14;;;;;;;;;;;;;;;;;;5059426;28;19913;-57
2023/09/14 02:53:40;;;;;;;;;;;;;;;;;;5059542;28;19939;-57
2023/09/14 02:56:06;;;;;;;;;;;;;;;;;;5076971;28;19913;-56
2023/09/14 02:58:31;;;;;;;;;;;;;;;;;;5059454;28;19913;-56
2023/09/14 03:00:56;;;;;;;;;;;;;;;;;;5060343;28;19980;-58
2023/09/14 03:03:22;;;;;;;;;;;;;;;;;;5073360;28;19917;-59
2023/09/14 03:05:48;;;;;;;;;;;;;;;;;;5076768;28;19942;-56
2023/09/14 03:08:13;;;;;;;;;;;;;;;;;;5071793;28;19932;-59
2023/09/14 03:10:38;;;;;;;;;;;;;;;;;;5072571;28;19913;-58
2023/09/14 03:13:04;;;;;;;;;;;;;;;;;;5105760;28;19923;-56
2023/09/14 03:15:30;;;;;;;;;;;;;;;;;;5059133;28;19909;-55
2023/09/14 03:17:55;;;;;;;;;;;;;;;;;;5076353;28;19917;-55
2023/09/14 03:20:21;;;;;;;;;;;;;;;;;;5059056;28;19917;-56
2023/09/14 03:22:46;;;;;;;;;;;;;;;;;;5076517;28;19964;-59
2023/09/14 03:25:12;;;;;;;;;;;;;;;;;;5058896;28;19912;-58
2023/09/14 03:27:38;;;;;;;;;;;;;;;;;;5058971;28;19924;-57
2023/09/14 03:30:04;;;;;;;;;;;;;;;;;;5058715;28;19976;-53
2023/09/14 03:32:30;;;;;;;;;;;;;;;;;;5058660;28;20597;-53
2023/09/14 03:34:55;;;;;;;;;;;;;;;;;;5076201;28;19919;-53
2023/09/14 03:37:22;;;;;;;;;;;;;;;;;;5076130;28;19923;-54
2023/09/14 03:39:48;;;;;;;;;;;;;;;;;;5058570;28;19913;-57
2023/09/14 03:42:13;;;;;;;;;;;;;;;;;;5083665;28;19913;-56
2023/09/14 03:44:39;;;;;;;;;;;;;;;;;;5083681;28;19943;-57
2023/09/14 03:47:04;;;;;;;;;;;;;;;;;;5076017;28;19924;-55
2023/09/14 03:49:30;;;;;;;;;;;;;;;;;;5058459;28;19913;-57
2023/09/14 03:51:55;;;;;;;;;;;;;;;;;;5062555;28;19912;-57
2023/09/14 03:54:20;;;;;;;;;;;;;;;;;;5078236;28;19984;-58
2023/09/14 03:56:45;;;;;;;;;;;;;;;;;;5095915;28;19951;-54
2023/09/14 03:59:11;;;;;;;;;;;;;;;;;;5078150;28;19912;-56
2023/09/14 04:01:36;;;;;;;;;;;;;;;;;;5077225;28;19919;-58
2023/09/14 04:04:02;;;;;;;;;;;;;;;;;;5058078;28;19921;-58
2023/09/14 04:06:27;;;;;;;;;;;;;;;;;;5075554;28;19935;-60
2023/09/14 04:08:53;;;;;;;;;;;;;;;;;;5075592;28;19916;-54
2023/09/14 04:11:18;;;;;;;;;;;;;;;;;;5058098;28;19913;-57
2023/09/14 04:13:44;;;;;;;;;;;;;;;;;;5074853;28;19991;-57
2023/09/14 04:16:10;;;;;;;;;;;;;;;;;;5095668;28;19967;-56
2023/09/14 04:18:38;;;;;;;;;;;;;;;;;;5111543;28;19934;-58
2023/09/14 04:21:04;;;;;;;;;;;;;;;;;;5115001;28;19912;-54
2023/09/14 04:23:30;;;;;;;;;;;;;;;;;;5099493;28;19921;-57
2023/09/14 04:25:56;;;;;;;;;;;;;;;;;;5114384;28;19916;-56
2023/09/14 04:28:22;;;;;;;;;;;;;;;;;;5114857;28;19919;-58
2023/09/14 04:30:48;;;;;;;;;;;;;;;;;;5114919;28;19908;-57
2023/09/14 04:33:13;;;;;;;;;;;;;;;;;;5102819;28;19917;-57
2023/09/14 04:35:39;;;;;;;;;;;;;;;;;;5094565;28;19935;-56
2023/09/14 04:38:06;;;;;;;;;;;;;;;;;;5094552;28;19927;-53
2023/09/14 04:40:31;;;;;;;;;;;;;;;;;;5094681;28;19962;-55
2023/09/14 04:42:57;;;;;;;;;;;;;;;;;;5103037;28;19912;-54
2023/09/14 04:45:22;;;;;;;;;;;;;;;;;;5098750;28;19988;-57
2023/09/14 04:47:48;;;;;;;;;;;;;;;;;;5091381;28;19912;-57
2023/09/14 04:50:13;;;;;;;;;;;;;;;;;;5094075;28;19912;-57
2023/09/14 04:52:39;;;;;;;;;;;;;;;;;;5100354;28;19971;-55
2023/09/14 04:55:04;;;;;;;;;;;;;;;;;;5104757;28;19908;-58
2023/09/14 04:57:30;;;;;;;;;;;;;;;;;;5093876;28;19909;-54
2023/09/14 04:59:55;;;;;;;;;;;;;;;;;;5095300;28;19934;-56
2023/09/14 05:02:21;;;;;;;;;;;;;;;;;;5095401;28;19942;-58
2023/09/14 05:04:46;;;;;;;;;;;;;;;;;;5114472;28;19935;-58
2023/09/14 05:07:12;;;;;;;;;;;;;;;;;;5095724;28;19912;-56
2023/09/14 05:09:37;;;;;;;;;;;;;;;;;;5094312;28;19917;-56
2023/09/14 05:12:03;;;;;;;;;;;;;;;;;;5093576;28;19916;-58
2023/09/14 05:14:28;;;;;;;;;;;;;;;;;;5112639;28;19908;-57
2023/09/14 05:16:54;;;;;;;;;;;;;;;;;;5094979;28;19956;-56
2023/09/14 05:19:19;;;;;;;;;;;;;;;;;;5090724;28;19939;-57
2023/09/14 05:21:45;;;;;;;;;;;;;;;;;;5078685;28;19920;-56
2023/09/14 05:24:10;;;;;;;;;;;;;;;;;;5102168;28;19951;-58
2023/09/14 05:26:36;;;;;;;;;;;;;;;;;;5078624;28;19912;-58
2023/09/14 05:29:02;;;;;;;;;;;;;;;;;;5094189;28;19948;-58
2023/09/14 05:31:27;;;;;;;;;;;;;;;;;;5087461;28;19913;-57
2023/09/14 05:33:52;;;;;;;;;;;;;;;;;;5081876;28;19916;-57
2023/09/14 05:36:17;;;;;;;;;;;;;;;;;;5087327;28;19913;-56
2023/09/14 05:38:44;;;;;;;;;;;;;;;;;;5078449;28;19924;-57
2023/09/14 05:41:10;;;;;;;;;;;;;;;;;;5090976;28;19912;-57
2023/09/14 05:43:36;;;;;;;;;;;;;;;;;;5069595;28;19984;-57
2023/09/14 05:46:02;;;;;;;;;;;;;;;;;;5066884;28;19913;-58
2023/09/14 05:48:28;;;;;;;;;;;;;;;;;;5060723;28;19975;-56
2023/09/14 05:50:53;;;;;;;;;;;;;;;;;;5060283;28;19980;-56
2023/09/14 05:53:19;;;;;;;;;;;;;;;;;;5060275;28;19939;-58
2023/09/14 05:55:44;;;;;;;;;;;;;;;;;;5094566;28;19920;-54
2023/09/14 05:58:10;;;;;;;;;;;;;;;;;;5060193;28;19913;-55
2023/09/14 06:00:36;;;;;;;;;;;;;;;;;;5090835;28;19913;-55
2023/09/14 06:03:02;;;;;;;;;;;;;;;;;;5079398;28;19913;-58
2023/09/14 06:05:27;;;;;;;;;;;;;;;;;;5059883;28;19948;-55
2023/09/14 06:07:53;;;;;;;;;;;;;;;;;;5077257;28;19917;-56
2023/09/14 06:10:19;;;;;;;;;;;;;;;;;;5059540;28;19934;-59
2023/09/14 06:12:45;;;;;;;;;;;;;;;;;;5059528;28;19921;-56
2023/09/14 06:15:10;;;;;;;;;;;;;;;;;;5079239;28;19913;-52
2023/09/14 06:17:36;;;;;;;;;;;;;;;;;;5077406;28;19924;-52
2023/09/14 06:20:03;;;;;;;;;;;;;;;;;;5077231;28;19920;-54
2023/09/14 06:22:28;;;;;;;;;;;;;;;;;;5074700;28;19912;-53
2023/09/14 06:24:54;;;;;;;;;;;;;;;;;;5080148;28;19924;-55
2023/09/14 06:27:19;;;;;;;;;;;;;;;;;;5077668;28;19920;-54
2023/09/14 06:29:45;;;;;;;;;;;;;;;;;;5077379;28;19913;-55
2023/09/14 06:32:11;;;;;;;;;;;;;;;;;;5076718;28;19976;-55
2023/09/14 06:34:37;;;;;;;;;;;;;;;;;;5089803;28;19912;-55
2023/09/14 06:37:02;;;;;;;;;;;;;;;;;;5061328;28;19980;-55
2023/09/14 06:39:27;;;;;;;;;;;;;;;;;;5076622;28;19913;-54
2023/09/14 06:41:52;;;;;;;;;;;;;;;;;;5076735;28;19917;-57
2023/09/14 06:44:19;;;;;;;;;;;;;;;;;;5086002;28;19939;-58
2023/09/14 06:46:45;;;;;;;;;;;;;;;;;;5082224;28;19912;-57
2023/09/14 06:49:10;;;;;;;;;;;;;;;;;;5076301;28;19927;-58
2023/09/14 06:51:36;;;;;;;;;;;;;;;;;;5078671;28;19912;-58
2023/09/14 06:54:01;;;;;;;;;;;;;;;;;;5059948;28;20000;-57
2023/09/14 06:56:26;;;;;;;;;;;;;;;;;;5078767;28;19912;-56
2023/09/14 06:58:51;;;;;;;;;;;;;;;;;;5076165;28;19912;-59
2023/09/14 07:01:17;;;;;;;;;;;;;;;;;;5076247;28;19968;-53
2023/09/14 07:03:42;;;;;;;;;;;;;;;;;;5075717;28;20123;-56
2023/09/14 07:06:09;;;;;;;;;;;;;;;;;;5076286;28;19916;-58
2023/09/14 07:08:34;;;;;;;;;;;;;;;;;;5076688;28;19917;-58
2023/09/14 07:10:59;;;;;;;;;;;;;;;;;;5075480;28;19964;-58
2023/09/14 07:13:25;;;;;;;;;;;;;;;;;;5056682;28;19941;-59
2023/09/14 07:15:51;;;;;;;;;;;;;;;;;;5092159;28;19912;-59
2023/09/14 07:18:17;;;;;;;;;;;;;;;;;;5076158;28;19917;-60
2023/09/14 07:20:43;;;;;;;;;;;;;;;;;;5064893;28;19917;-58
2023/09/14 07:23:08;;;;;;;;;;;;;;;;;;5055886;28;19941;-58
2023/09/14 07:25:34;;;;;;;;;;;;;;;;;;5038762;28;19924;-57
2023/09/14 07:27:59;;;;;;;;;;;;;;;;;;5076259;28;20592;-59
2023/09/14 07:30:25;;;;;;;;;;;;;;;;;;5076029;28;19976;-55
2023/09/14 07:32:50;;;;;;;;;;;;;;;;;;5075988;28;19916;-58
2023/09/14 07:35:16;;;;;;;;;;;;;;;;;;5076962;28;19935;-58
2023/09/14 07:37:41;;;;;;;;;;;;;;;;;;5092399;28;19934;-60
2023/09/14 07:40:07;;;;;;;;;;;;;;;;;;5072070;28;20002;-56
2023/09/14 07:42:32;;;;;;;;;;;;;;;;;;5075288;28;19916;-57
2023/09/14 07:44:58;;;;;;;;;;;;;;;;;;5075340;28;19935;-59
2023/09/14 07:47:28;;;;;;;;;;;;;;;;;;5074760;28;19913;-59
2023/09/14 07:49:53;;;;;;;;;;;;;;;;;;5057312;28;20004;-59
2023/09/14 07:52:19;;;;;;;;;;;;;;;;;;5075046;28;19917;-56
2023/09/14 07:54:44;;;;;;;;;;;;;;;;;;5075217;28;19973;-55
2023/09/14 07:57:09;;;;;;;;;;;;;;;;;;5075345;28;19909;-60
2023/09/14 07:59:34;;;;;;;;;;;;;;;;;;5075462;28;19947;-54
2023/09/14 08:01:59;;;;;;;;;;;;;;;;;;5074358;28;19924;-58
2023/09/14 08:04:25;;;;;;;;;;;;;;;;;;5064010;28;19912;-57
2023/09/14 08:06:50;;;;;;;;;;;;;;;;;;5075037;28;19897;-54
2023/09/14 08:09:16;;;;;;;;;;;;;;;;;;5057789;28;19916;-56
2023/09/14 08:11:42;;;;;;;;;;;;;;;;;;5075261;28;19972;-57
2023/09/14 08:14:07;;;;;;;;;;;;;;;;;;5075039;28;19977;-58
2023/09/14 08:16:32;;;;;;;;;;;;;;;;;;5093550;28;19918;-56
2023/09/14 08:18:58;;;;;;;;;;;;;;;;;;5094753;28;19924;-58
2023/09/14 08:21:23;;;;;;;;;;;;;;;;;;5094944;28;20003;-57
2023/09/14 08:23:49;;;;;;;;;;;;;;;;;;5087946;28;19913;-56
2023/09/14 08:26:14;;;;;;;;;;;;;;;;;;5090160;28;19912;-54
2023/09/14 08:28:40;;;;;;;;;;;;;;;;;;5094907;28;19924;-57
2023/09/14 08:31:05;;;;;;;;;;;;;;;;;;5095043;28;19934;-57
2023/09/14 08:33:30;;;;;;;;;;;;;;;;;;5077401;28;19935;-57
2023/09/14 08:35:56;;;;;;;;;;;;;;;;;;5082570;28;19971;-55
2023/09/14 08:38:23;;;;;;;;;;;;;;;;;;5073014;28;19913;-56
2023/09/14 08:40:51;;;;;;;;;;;;;;;;;;5094509;28;19939;-57
2023/09/14 08:43:19;;;;;;;;;;;;;;;;;;5095128;28;19915;-58
2023/09/14 08:45:44;;;;;;;;;;;;;;;;;;5085543;28;20007;-57
2023/09/14 08:48:09;;;;;;;;;;;;;;;;;;5088551;28;19938;-57
2023/09/14 08:50:34;;;;;;;;;;;;;;;;;;5094514;28;19916;-59
2023/09/14 08:52:59;;;;;;;;;;;;;;;;;;5094715;28;19917;-58
2023/09/14 08:55:25;;;;;;;;;;;;;;;;;;5086586;28;19925;-56
2023/09/14 08:57:50;;;;;;;;;;;;;;;;;;5078122;28;19920;-58
2023/09/14 09:00:17;;;;;;;;;;;;;;;;;;5096341;28;19912;-58
2023/09/14 09:02:43;;;;;;;;;;;;;;;;;;5085705;28;19980;-60
2023/09/14 09:05:08;;;;;;;;;;;;;;;;;;5095640;28;19940;-56
2023/09/14 09:07:33;;;;;;;;;;;;;;;;;;5082457;28;19936;-58
2023/09/14 09:09:58;;;;;;;;;;;;;;;;;;5078655;28;20226;-56
2023/09/14 09:12:24;;;;;;;;;;;;;;;;;;5078584;28;19917;-59
2023/09/14 09:14:49;;;;;;;;;;;;;;;;;;5078604;28;19912;-58
2023/09/14 09:17:14;;;;;;;;;;;;;;;;;;5081475;28;19956;-60
2023/09/14 09:19:39;;;;;;;;;;;;;;;;;;5098559;28;19916;-58
2023/09/14 09:22:05;;;;;;;;;;;;;;;;;;5098801;28;19935;-57
2023/09/14 09:24:30;;;;;;;;;;;;;;;;;;5081383;28;19913;-58
2023/09/14 09:26:56;;;;;;;;;;;;;;;;;;5079883;28;19919;-58
2023/09/14 09:29:22;;;;;;;;;;;;;;;;;;5066065;28;19965;-58
2023/09/14 09:31:50;;;;;;;;;;;;;;;;;;5058413;28;19909;-57
2023/09/14 09:34:15;;;;;;;;;;;;;;;;;;5057943;28;19960;-60
2023/09/14 09:36:41;;;;;;;;;;;;;;;;;;5082768;28;19958;-58
2023/09/14 09:39:10;;;;;;;;;;;;;;;;;;5098349;28;19912;-59
2023/09/14 09:41:36;;;;;;;;;;;;;;;;;;5098582;28;19935;-59
2023/09/14 09:44:02;;;;;;;;;;;;;;;;;;5081231;28;19913;-59
2023/09/14 09:46:27;;;;;;;;;;;;;;;;;;5087376;28;19912;-59
2023/09/14 09:48:52;;;;;;;;;;;;;;;;;;5097680;28;19963;-58
2023/09/14 09:51:17;;;;;;;;;;;;;;;;;;5080632;28;19920;-59
2023/09/14 09:53:43;;;;;;;;;;;;;;;;;;5098096;28;19921;-59
2023/09/14 09:56:08;;;;;;;;;;;;;;;;;;5095516;28;19972;-60
2023/09/14 09:58:34;;;;;;;;;;;;;;;;;;5074739;28;19912;-58
2023/09/14 10:01:00;;;;;;;;;;;;;;;;;;5077768;28;19940;-56
2023/09/14 10:03:25;;;;;;;;;;;;;;;;;;5077274;28;19920;-59
2023/09/14 10:05:51;;;;;;;;;;;;;;;;;;5080097;28;19912;-58
2023/09/14 10:08:16;;;;;;;;;;;;;;;;;;5097200;28;19913;-60
2023/09/14 10:10:42;;;;;;;;;;;;;;;;;;5096505;28;19946;-59
2023/09/14 10:13:08;;;;;;;;;;;;;;;;;;5097452;28;19916;-57
2023/09/14 10:15:34;;;;;;;;;;;;;;;;;;5080072;28;19938;-60
2023/09/14 10:18:00;;;;;;;;;;;;;;;;;;5096849;28;19944;-59
2023/09/14 10:20:25;;;;;;;;;;;;;;;;;;5097478;28;19931;-59
2023/09/14 10:22:51;;;;;;;;;;;;;;;;;;5097119;28;19912;-58
2023/09/14 10:25:16;;;;;;;;;;;;;;;;;;5096758;28;19912;-59
2023/09/14 10:27:41;;;;;;;;;;;;;;;;;;5081035;28;19938;-59
2023/09/14 10:30:06;;;;;;;;;;;;;;;;;;5077166;28;19940;-57
2023/09/14 10:32:32;;;;;;;;;;;;;;;;;;5076702;28;19916;-58
2023/09/14 10:34:57;;;;;;;;;;;;;;;;;;5076842;28;19913;-59
2023/09/14 10:37:22;;;;;;;;;;;;;;;;;;5089143;28;19913;-60
2023/09/14 10:39:48;;;;;;;;;;;;;;;;;;5096729;28;19935;-60
2023/09/14 10:42:14;;;;;;;;;;;;;;;;;;5096907;28;19912;-60
2023/09/14 10:44:39;;;;;;;;;;;;;;;;;;5079468;28;19924;-61
2023/09/14 10:47:05;;;;;;;;;;;;;;;;;;5087766;28;19952;-59
2023/09/14 10:49:30;;;;;;;;;;;;;;;;;;5076477;28;19908;-59
2023/09/14 10:51:56;;;;;;;;;;;;;;;;;;5076417;28;19913;-58
2023/09/14 10:54:22;;;;;;;;;;;;;;;;;;5074385;28;19913;-59
2023/09/14 10:56:47;;;;;;;;;;;;;;;;;;5076198;28;19938;-60
2023/09/14 10:59:12;;;;;;;;;;;;;;;;;;5076140;28;19913;-60
2023/09/14 11:01:37;;;;;;;;;;;;;;;;;;5076546;28;19912;-58
2023/09/14 11:04:03;;;;;;;;;;;;;;;;;;5074795;28;19921;-60
2023/09/14 11:06:28;;;;;;;;;;;;;;;;;;5074548;28;19956;-60
2023/09/14 11:08:54;;;;;;;;;;;;;;;;;;5069481;28;19923;-60
2023/09/14 11:11:19;;;;;;;;;;;;;;;;;;5057396;28;19923;-59
2023/09/14 11:13:45;;;;;;;;;;;;;;;;;;5075625;28;19917;-59
2023/09/14 11:16:10;;;;;;;;;;;;;;;;;;5060284;28;19913;-60
2023/09/14 11:18:36;;;;;;;;;;;;;;;;;;5093460;28;19966;-60
2023/09/14 11:21:02;;;;;;;;;;;;;;;;;;5095746;28;19934;-59
2023/09/14 11:23:27;;;;;;;;;;;;;;;;;;5095681;28;19932;-60
2023/09/14 11:25:52;;;;;;;;;;;;;;;;;;5095921;28;19924;-59
2023/09/14 11:28:18;;;;;;;;;;;;;;;;;;5080215;28;19913;-60
2023/09/14 11:30:43;;;;;;;;;;;;;;;;;;5075711;28;19952;-60
2023/09/14 11:33:11;;;;;;;;;;;;;;;;;;5074594;28;21329;-59
2023/09/14 11:35:36;;;;;;;;;;;;;;;;;;5076101;28;19919;-60
2023/09/14 11:38:02;;;;;;;;;;;;;;;;;;5087678;28;19958;-61
2023/09/14 11:40:30;;;;;;;;;;;;;;;;;;5056034;28;19901;-59
2023/09/14 11:42:56;;;;;;;;;;;;;;;;;;5055932;28;19920;-60
2023/09/14 11:45:22;;;;;;;;;;;;;;;;;;5055509;28;19917;-61
2023/09/14 11:47:47;;;;;;;;;;;;;;;;;;5069324;28;19913;-60
2023/09/14 11:50:12;;;;;;;;;;;;;;;;;;5076432;28;19939;-61
2023/09/14 11:52:37;;;;;;;;;;;;;;;;;;5075194;28;19916;-60
2023/09/14 11:55:03;;;;;;;;;;;;;;;;;;5091132;28;19916;-60
2023/09/14 11:57:28;;;;;;;;;;;;;;;;;;5081089;28;19913;-60
2023/09/14 11:59:54;;;;;;;;;;;;;;;;;;5095308;28;19916;-61
2023/09/14 12:02:19;;;;;;;;;;;;;;;;;;5095291;28;19919;-60
2023/09/14 12:04:47;;;;;;;;;;;;;;;;;;5095714;28;19913;-60
2023/09/14 12:07:12;;;;;;;;;;;;;;;;;;5092725;28;19913;-61
2023/09/14 12:09:37;;;;;;;;;;;;;;;;;;5075408;28;19913;-61
2023/09/14 12:12:03;;;;;;;;;;;;;;;;;;5075027;28;20090;-61
2023/09/14 12:14:28;;;;;;;;;;;;;;;;;;5057618;28;19913;-61
2023/09/14 12:16:53;;;;;;;;;;;;;;;;;;5074849;28;19936;-60
2023/09/14 12:19:19;;;;;;;;;;;;;;;;;;5094027;28;19947;-59
2023/09/14 12:21:44;;;;;;;;;;;;;;;;;;5094621;28;19920;-60
2023/09/14 12:24:10;;;;;;;;;;;;;;;;;;5094925;28;19909;-60
2023/09/14 12:26:37;;;;;;;;;;;;;;;;;;5095354;28;19913;-61
2023/09/14 12:29:02;;;;;;;;;;;;;;;;;;5078728;28;19951;-60
2023/09/14 12:31:29;;;;;;;;;;;;;;;;;;5089125;28;19912;-61
2023/09/14 12:33:54;;;;;;;;;;;;;;;;;;5094281;28;19931;-60
2023/09/14 12:36:20;;;;;;;;;;;;;;;;;;5094728;28;19952;-59
2023/09/14 12:38:45;;;;;;;;;;;;;;;;;;5082076;28;19913;-61
2023/09/14 12:41:10;;;;;;;;;;;;;;;;;;5085628;28;19988;-61
2023/09/14 12:43:35;;;;;;;;;;;;;;;;;;5095045;28;19918;-60
2023/09/14 12:46:01;;;;;;;;;;;;;;;;;;5094578;28;19913;-60
2023/09/14 12:48:29;;;;;;;;;;;;;;;;;;5085590;28;19935;-61
2023/09/14 12:50:54;;;;;;;;;;;;;;;;;;5074631;28;19917;-60
2023/09/14 12:53:19;;;;;;;;;;;;;;;;;;5074210;28;19921;-61
2023/09/14 12:55:44;;;;;;;;;;;;;;;;;;5074776;28;19971;-61
2023/09/14 12:58:10;;;;;;;;;;;;;;;;;;5074329;28;19921;-60
2023/09/14 13:00:37;;;;;;;;;;;;;;;;;;5057475;28;19913;-60
2023/09/14 13:03:04;;;;;;;;;;;;;;;;;;5074436;28;19909;-61
2023/09/14 13:05:30;;;;;;;;;;;;;;;;;;5074224;28;19923;-60
2023/09/14 13:07:55;;;;;;;;;;;;;;;;;;5076848;28;19971;-60
2023/09/14 13:10:21;;;;;;;;;;;;;;;;;;5092574;28;19955;-60
2023/09/14 13:12:46;;;;;;;;;;;;;;;;;;5074186;28;19920;-60
2023/09/14 13:15:12;;;;;;;;;;;;;;;;;;5074390;28;19912;-60
2023/09/14 13:17:37;;;;;;;;;;;;;;;;;;5074286;28;19924;-60
2023/09/14 13:20:09;;;;;;;;;;;;;;;;;;5074393;28;19913;-61
2023/09/14 13:22:34;;;;;;;;;;;;;;;;;;5074209;28;19913;-61
2023/09/14 13:25:00;;;;;;;;;;;;;;;;;;5074369;28;19976;-61
2023/09/14 13:27:30;;;;;;;;;;;;;;;;;;5074466;28;19912;-60
2023/09/14 13:29:55;;;;;;;;;;;;;;;;;;5092039;28;19920;-60
2023/09/14 13:32:21;;;;;;;;;;;;;;;;;;5094085;28;20019;-60
2023/09/14 13:34:46;;;;;;;;;;;;;;;;;;5094652;28;19912;-60
2023/09/14 13:37:12;;;;;;;;;;;;;;;;;;5094133;28;19913;-61
2023/09/14 13:39:37;;;;;;;;;;;;;;;;;;5080081;28;19920;-60
2023/09/14 13:42:02;;;;;;;;;;;;;;;;;;5056634;28;19913;-61
2023/09/14 13:44:28;;;;;;;;;;;;;;;;;;5074009;28;19913;-60
2023/09/14 13:46:53;;;;;;;;;;;;;;;;;;5077606;28;19916;-60
2023/09/14 13:49:18;;;;;;;;;;;;;;;;;;5070211;28;19913;-61
2023/09/14 13:51:43;;;;;;;;;;;;;;;;;;5087902;28;19924;-61
2023/09/14 13:54:08;;;;;;;;;;;;;;;;;;5077706;28;19942;-60
2023/09/14 13:56:34;;;;;;;;;;;;;;;;;;5077494;28;19913;-61
2023/09/14 13:58:59;;;;;;;;;;;;;;;;;;5077391;28;20368;-61
2023/09/14 14:01:26;;;;;;;;;;;;;;;;;;5059857;28;19948;-60
2023/09/14 14:03:51;;;;;;;;;;;;;;;;;;5077453;28;19952;-60
2023/09/14 14:06:18;;;;;;;;;;;;;;;;;;5073146;28;19913;-61
2023/09/14 14:08:43;;;;;;;;;;;;;;;;;;5078118;28;20465;-61
2023/09/14 14:11:09;;;;;;;;;;;;;;;;;;5076802;28;19995;-61
2023/09/14 14:13:34;;;;;;;;;;;;;;;;;;5076709;28;19976;-61
2023/09/14 14:16:00;;;;;;;;;;;;;;;;;;5076817;28;19936;-61
2023/09/14 14:18:25;;;;;;;;;;;;;;;;;;5077459;28;19917;-61
2023/09/14 14:20:51;;;;;;;;;;;;;;;;;;5097045;28;19944;-60
2023/09/14 14:23:16;;;;;;;;;;;;;;;;;;5096845;28;19920;-61
2023/09/14 14:25:44;;;;;;;;;;;;;;;;;;5097301;28;19935;-61
2023/09/14 14:28:09;;;;;;;;;;;;;;;;;;5097362;28;19912;-61
2023/09/14 14:30:34;;;;;;;;;;;;;;;;;;5079380;28;19951;-61
2023/09/14 14:32:59;;;;;;;;;;;;;;;;;;5076724;28;20103;-61
2023/09/14 14:35:25;;;;;;;;;;;;;;;;;;5076758;28;19927;-62
2023/09/14 14:37:50;;;;;;;;;;;;;;;;;;5076880;28;19916;-61
2023/09/14 14:40:17;;;;;;;;;;;;;;;;;;5090934;28;19912;-62
2023/09/14 14:42:43;;;;;;;;;;;;;;;;;;5083522;28;19920;-61
2023/09/14 14:45:08;;;;;;;;;;;;;;;;;;5076728;28;19913;-61
2023/09/14 14:47:35;;;;;;;;;;;;;;;;;;5076565;28;19935;-62
2023/09/14 14:50:01;;;;;;;;;;;;;;;;;;5088006;28;19938;-62
2023/09/14 14:52:26;;;;;;;;;;;;;;;;;;5096690;28;19912;-62
2023/09/14 14:54:51;;;;;;;;;;;;;;;;;;5096714;28;19913;-62
2023/09/14 14:57:16;;;;;;;;;;;;;;;;;;5095716;28;19913;-62
2023/09/14 14:59:42;;;;;;;;;;;;;;;;;;5088879;28;20003;-61
2023/09/14 15:02:08;;;;;;;;;;;;;;;;;;5076011;28;20379;-62
2023/09/14 15:04:34;;;;;;;;;;;;;;;;;;5075945;28;19972;-62
2023/09/14 15:07:00;;;;;;;;;;;;;;;;;;5073214;28;20243;-62
2023/09/14 15:09:27;;;;;;;;;;;;;;;;;;5075839;28;19936;-62
2023/09/14 15:11:54;;;;;;;;;;;;;;;;;;5075659;28;19920;-62
2023/09/14 15:14:19;;;;;;;;;;;;;;;;;;5072648;28;19920;-62
2023/09/14 15:16:45;;;;;;;;;;;;;;;;;;5075375;28;20378;-63
2023/09/14 15:19:10;;;;;;;;;;;;;;;;;;5077281;28;19913;-62
2023/09/14 15:21:36;;;;;;;;;;;;;;;;;;5076206;28;19920;-62
2023/09/14 15:24:02;;;;;;;;;;;;;;;;;;5075623;28;19913;-62
2023/09/14 15:26:27;;;;;;;;;;;;;;;;;;5075500;28;19919;-62
2023/09/14 15:28:52;;;;;;;;;;;;;;;;;;5075718;28;19912;-62
2023/09/14 15:31:17;;;;;;;;;;;;;;;;;;5076849;28;19913;-61
2023/09/14 15:33:42;;;;;;;;;;;;;;;;;;5077434;28;19939;-63
2023/09/14 15:36:08;;;;;;;;;;;;;;;;;;5075598;28;19947;-62
2023/09/14 15:38:33;;;;;;;;;;;;;;;;;;5075381;28;19917;-62
2023/09/14 15:40:58;;;;;;;;;;;;;;;;;;5076058;28;19969;-62
2023/09/14 15:43:23;;;;;;;;;;;;;;;;;;5075365;28;19928;-62
2023/09/14 15:45:49;;;;;;;;;;;;;;;;;;5075501;28;19913;-62
2023/09/14 15:48:16;;;;;;;;;;;;;;;;;;5075666;28;19936;-62
2023/09/14 15:50:41;;;;;;;;;;;;;;;;;;5087175;28;19927;-63
2023/09/14 15:53:07;;;;;;;;;;;;;;;;;;5085400;28;19916;-62
2023/09/14 15:55:32;;;;;;;;;;;;;;;;;;5075592;28;19927;-62
2023/09/14 15:57:59;;;;;;;;;;;;;;;;;;5075805;28;19913;-61
2023/09/14 16:00:25;;;;;;;;;;;;;;;;;;5084109;28;20011;-61
2023/09/14 16:02:50;;;;;;;;;;;;;;;;;;5088335;28;19936;-60
2023/09/14 16:05:16;;;;;;;;;;;;;;;;;;5075417;28;19943;-61
2023/09/14 16:07:41;;;;;;;;;;;;;;;;;;5075132;28;19920;-62
2023/09/14 16:10:11;;;;;;;;;;;;;;;;;;5079869;28;19916;-61
2023/09/14 16:12:37;;;;;;;;;;;;;;;;;;5085399;28;19948;-61
2023/09/14 16:15:02;;;;;;;;;;;;;;;;;;5095219;28;19913;-60
2023/09/14 16:17:27;;;;;;;;;;;;;;;;;;5095023;28;19931;-61
2023/09/14 16:19:52;;;;;;;;;;;;;;;;;;5093077;28;19913;-60
2023/09/14 16:22:18;;;;;;;;;;;;;;;;;;5075366;28;19920;-62
2023/09/14 16:24:43;;;;;;;;;;;;;;;;;;5075501;28;19917;-62
2023/09/14 16:27:09;;;;;;;;;;;;;;;;;;5075330;28;19916;-63
2023/09/14 16:29:35;;;;;;;;;;;;;;;;;;5075291;28;19912;-62
2023/09/14 16:32:00;;;;;;;;;;;;;;;;;;5094089;28;19913;-62
2023/09/14 16:34:25;;;;;;;;;;;;;;;;;;5077221;28;19917;-62